createdAt,value
2022-09-01T00:00:50.846Z,14.20
2022-09-01T00:03:18.566Z,14.28
2022-09-01T00:05:46.201Z,14.33
2022-09-01T00:08:18.105Z,14.19
2022-09-01T00:10:45.230Z,14.07
2022-09-01T00:13:12.100Z,14.08
2022-09-01T00:15:38.696Z,13.97
2022-09-01T00:18:05.650Z,14.03
2022-09-01T00:20:32.221Z,14.15
2022-09-01T00:23:00.651Z,13.90
2022-09-01T00:25:28.328Z,13.86
2022-09-01T00:27:59.273Z,13.99
2022-09-01T00:30:29.242Z,14.04
2022-09-01T00:32:55.620Z,14.15
2022-09-01T00:35:22.145Z,14.11
2022-09-01T00:37:48.675Z,14.03
2022-09-01T00:40:17.311Z,13.80
2022-09-01T00:42:45.016Z,13.63
2022-09-01T00:45:11.803Z,13.65
2022-09-01T00:47:38.259Z,13.79
2022-09-01T00:50:06.228Z,13.90
2022-09-01T00:52:35.324Z,14.07
2022-09-01T00:55:10.177Z,13.98
2022-09-01T00:57:36.627Z,13.96
2022-09-01T01:00:08.946Z,13.72
2022-09-01T01:02:37.164Z,13.65
2022-09-01T01:05:03.962Z,13.63
2022-09-01T01:07:30.804Z,13.62
2022-09-01T01:09:57.354Z,13.63
2022-09-01T01:12:23.780Z,13.64
2022-09-01T01:14:50.886Z,13.55
2022-09-01T01:17:21.247Z,13.58
2022-09-01T01:20:11.259Z,13.73
2022-09-01T01:23:02.799Z,13.83
2022-09-01T01:25:49.655Z,13.87
2022-09-01T01:28:16.051Z,13.82
2022-09-01T01:30:44.910Z,13.89
2022-09-01T01:33:11.742Z,13.90
2022-09-01T01:35:38.245Z,13.82
2022-09-01T01:38:07.886Z,13.83
2022-09-01T01:40:35.030Z,13.83
2022-09-01T01:43:01.990Z,13.79
2022-09-01T01:45:28.797Z,13.87
2022-09-01T01:47:56.395Z,13.89
2022-09-01T01:50:27.071Z,13.77
2022-09-01T01:52:58.612Z,13.73
2022-09-01T01:55:28.993Z,13.69
2022-09-01T01:57:56.446Z,13.61
2022-09-01T02:00:30.182Z,13.67
2022-09-01T02:02:58.173Z,13.53
2022-09-01T02:05:27.080Z,13.36
2022-09-01T02:08:00.098Z,13.32
2022-09-01T02:10:30.909Z,13.16
2022-09-01T02:13:05.514Z,13.00
2022-09-01T02:15:38.828Z,12.91
2022-09-01T02:18:06.128Z,12.87
2022-09-01T02:20:32.856Z,13.04
2022-09-01T02:23:10.609Z,13.24
2022-09-01T02:25:53.936Z,13.38
2022-09-01T02:28:27.798Z,13.39
2022-09-01T02:30:57.969Z,13.43
2022-09-01T02:33:25.356Z,13.40
2022-09-01T02:35:54.015Z,13.40
2022-09-01T02:38:21.142Z,13.37
2022-09-01T02:40:48.792Z,13.36
2022-09-01T02:43:19.509Z,13.30
2022-09-01T02:45:54.461Z,13.39
2022-09-01T02:48:26.543Z,13.47
2022-09-01T02:50:53.853Z,13.37
2022-09-01T02:53:20.594Z,13.37
2022-09-01T02:55:47.013Z,13.36
2022-09-01T02:58:16.345Z,13.36
2022-09-01T03:00:43.529Z,13.36
2022-09-01T03:03:12.672Z,13.44
2022-09-01T03:05:39.552Z,13.32
2022-09-01T03:08:10.410Z,13.23
2022-09-01T03:10:38.079Z,13.23
2022-09-01T03:13:08.943Z,13.32
2022-09-01T03:15:36.571Z,13.26
2022-09-01T03:18:04.552Z,13.22
2022-09-01T03:20:34.024Z,13.00
2022-09-01T03:23:00.902Z,13.01
2022-09-01T03:25:28.833Z,13.15
2022-09-01T03:27:55.974Z,13.17
2022-09-01T03:30:22.447Z,13.14
2022-09-01T03:32:48.948Z,12.91
2022-09-01T03:35:15.738Z,12.72
2022-09-01T03:37:45.373Z,12.81
2022-09-01T03:40:12.703Z,12.97
2022-09-01T03:42:39.456Z,13.03
2022-09-01T03:45:09.222Z,13.08
2022-09-01T03:47:40.439Z,13.05
2022-09-01T03:50:20.331Z,13.00
2022-09-01T03:52:49.210Z,13.00
2022-09-01T03:55:23.182Z,13.06
2022-09-01T03:57:50.762Z,13.05
2022-09-01T04:00:23.059Z,13.07
2022-09-01T04:02:56.127Z,13.06
2022-09-01T04:05:25.095Z,13.11
2022-09-01T04:07:52.093Z,13.11
2022-09-01T04:10:18.608Z,13.12
2022-09-01T04:12:45.506Z,12.94
2022-09-01T04:15:12.747Z,12.97
2022-09-01T04:17:57.998Z,13.11
2022-09-01T04:20:24.483Z,13.00
2022-09-01T04:22:52.642Z,12.88
2022-09-01T04:25:23.207Z,12.82
2022-09-01T04:27:55.449Z,12.81
2022-09-01T04:30:31.549Z,12.78
2022-09-01T04:32:57.986Z,12.76
2022-09-01T04:35:33.072Z,12.65
2022-09-01T04:38:05.970Z,12.63
2022-09-01T04:40:32.380Z,12.63
2022-09-01T04:42:58.884Z,12.73
2022-09-01T04:45:27.785Z,12.69
2022-09-01T04:47:55.416Z,12.72
2022-09-01T04:50:22.113Z,12.86
2022-09-01T04:52:48.629Z,12.79
2022-09-01T04:55:18.231Z,12.52
2022-09-01T04:57:49.595Z,12.42
2022-09-01T05:00:22.515Z,12.44
2022-09-01T05:02:54.000Z,12.56
2022-09-01T05:05:21.805Z,12.53
2022-09-01T05:07:52.486Z,12.55
2022-09-01T05:10:26.295Z,12.64
2022-09-01T05:12:53.237Z,12.71
2022-09-01T05:15:20.801Z,12.89
2022-09-01T05:17:47.510Z,12.84
2022-09-01T05:20:14.016Z,12.74
2022-09-01T05:22:41.083Z,12.63
2022-09-01T05:25:14.493Z,12.82
2022-09-01T05:27:52.593Z,13.21
2022-09-01T05:30:20.808Z,13.44
2022-09-01T05:32:49.019Z,13.42
2022-09-01T05:35:17.633Z,13.40
2022-09-01T05:37:44.095Z,13.52
2022-09-01T05:40:16.133Z,13.58
2022-09-01T05:42:45.737Z,13.67
2022-09-01T05:45:12.219Z,13.52
2022-09-01T05:47:39.467Z,13.50
2022-09-01T05:50:11.023Z,13.43
2022-09-01T05:52:40.790Z,13.42
2022-09-01T05:55:09.330Z,13.42
2022-09-01T05:57:36.327Z,13.45
2022-09-01T06:00:11.019Z,13.38
2022-09-01T06:02:38.907Z,13.38
2022-09-01T06:05:05.933Z,13.52
2022-09-01T06:07:32.728Z,13.56
2022-09-01T06:09:59.791Z,13.65
2022-09-01T06:12:28.124Z,13.66
2022-09-01T06:14:55.197Z,13.74
2022-09-01T06:17:24.795Z,13.85
2022-09-01T06:20:02.067Z,14.03
2022-09-01T06:22:29.763Z,14.15
2022-09-01T06:25:02.355Z,14.21
2022-09-01T06:27:29.632Z,14.24
2022-09-01T06:29:56.240Z,14.25
2022-09-01T06:32:25.886Z,14.28
2022-09-01T06:34:52.599Z,14.37
2022-09-01T06:37:22.985Z,14.42
2022-09-01T06:39:54.165Z,14.47
2022-09-01T06:42:23.187Z,14.54
2022-09-01T06:44:49.576Z,14.60
2022-09-01T06:47:16.019Z,14.67
2022-09-01T06:49:42.542Z,14.73
2022-09-01T06:52:13.844Z,14.82
2022-09-01T06:54:43.723Z,14.80
2022-09-01T06:59:56.640Z,14.89
2022-09-01T07:02:26.969Z,14.89
2022-09-01T07:05:59.792Z,14.97
2022-09-01T07:08:05.407Z,15.05
2022-09-01T07:10:32.186Z,15.06
2022-09-01T07:13:05.464Z,15.12
2022-09-01T07:18:21.205Z,15.24
2022-09-01T07:26:26.337Z,15.37
2022-09-01T07:29:12.136Z,15.43
2022-09-01T07:34:46.436Z,15.61
2022-09-01T07:45:29.667Z,15.89
2022-09-01T07:48:06.385Z,15.96
2022-09-01T07:51:35.058Z,16.11
2022-09-01T07:53:22.416Z,16.34
2022-09-01T07:55:54.889Z,16.47
2022-09-01T07:58:23.172Z,16.57
2022-09-01T08:00:49.982Z,16.65
2022-09-01T08:03:17.910Z,16.82
2022-09-01T08:05:44.787Z,17.02
2022-09-01T08:08:29.364Z,17.15
2022-09-01T08:11:04.253Z,17.41
2022-09-01T08:13:31.243Z,17.58
2022-09-01T08:18:48.540Z,17.82
2022-09-01T08:21:16.648Z,18.05
2022-09-01T08:23:44.216Z,18.15
2022-09-01T08:26:12.632Z,18.25
2022-09-01T08:28:46.012Z,18.47
2022-09-01T08:31:13.986Z,18.55
2022-09-01T08:33:41.861Z,18.81
2022-09-01T08:36:09.331Z,18.69
2022-09-01T08:38:42.064Z,18.58
2022-09-01T08:41:19.915Z,18.52
2022-09-01T08:44:08.171Z,18.70
2022-09-01T08:46:38.669Z,18.93
2022-09-01T08:49:29.886Z,19.01
2022-09-01T08:52:10.892Z,19.42
2022-09-01T08:54:43.340Z,19.51
2022-09-01T08:57:21.736Z,19.88
2022-09-01T08:59:48.282Z,19.64
2022-09-01T09:02:23.567Z,19.39
2022-09-01T09:05:17.524Z,19.61
2022-09-01T09:08:08.146Z,19.88
2022-09-01T09:10:53.436Z,20.06
2022-09-01T09:13:31.104Z,20.12
2022-09-01T09:16:07.987Z,20.03
2022-09-01T09:18:57.770Z,19.99
2022-09-01T09:21:30.410Z,20.13
2022-09-01T09:24:21.169Z,20.22
2022-09-01T09:26:54.060Z,20.36
2022-09-01T09:29:23.460Z,20.61
2022-09-01T09:32:05.857Z,20.78
2022-09-01T09:34:40.319Z,20.79
2022-09-01T09:37:36.145Z,20.69
2022-09-01T09:40:02.912Z,20.59
2022-09-01T09:42:34.926Z,20.86
2022-09-01T09:45:04.315Z,20.70
2022-09-01T09:47:43.022Z,20.45
2022-09-01T09:50:27.554Z,20.58
2022-09-01T09:53:13.563Z,20.82
2022-09-01T09:56:00.278Z,20.99
2022-09-01T09:58:37.688Z,21.26
2022-09-01T10:01:28.182Z,21.05
2022-09-01T10:04:00.252Z,20.59
2022-09-01T10:06:30.378Z,20.68
2022-09-01T10:08:57.010Z,21.13
2022-09-01T10:11:33.566Z,21.39
2022-09-01T10:14:04.785Z,21.75
2022-09-01T10:16:32.535Z,21.82
2022-09-01T11:17:20.193Z,21.06
2022-09-01T11:20:01.373Z,21.07
2022-09-01T11:22:56.980Z,20.58
2022-09-01T11:25:48.500Z,20.12
2022-09-01T11:28:40.027Z,20.04
2022-09-01T11:31:16.650Z,19.98
2022-09-01T11:33:56.631Z,19.95
2022-09-01T11:36:48.312Z,20.04
2022-09-01T11:39:18.117Z,20.14
2022-09-01T11:41:45.902Z,20.04
2022-09-01T11:44:37.123Z,20.01
2022-09-01T11:47:16.710Z,20.09
2022-09-01T11:49:58.674Z,20.17
2022-09-01T11:52:31.913Z,20.27
2022-09-01T11:54:59.766Z,20.33
2022-09-01T11:57:32.722Z,20.42
2022-09-01T12:00:02.054Z,21.14
2022-09-01T12:02:33.647Z,21.90
2022-09-01T12:05:24.398Z,22.19
2022-09-01T12:07:51.061Z,22.65
2022-09-01T12:10:32.650Z,22.41
2022-09-01T12:13:40.186Z,21.56
2022-09-01T12:16:19.015Z,21.00
2022-09-01T12:18:52.317Z,20.70
2022-09-01T12:21:29.691Z,20.63
2022-09-01T12:24:14.687Z,20.65
2022-09-01T12:26:42.065Z,20.96
2022-09-01T12:29:14.727Z,21.73
2022-09-01T12:31:43.629Z,21.81
2022-09-01T12:34:34.388Z,21.93
2022-09-01T12:37:12.401Z,22.38
2022-09-01T12:39:45.637Z,22.49
2022-09-01T12:42:21.338Z,22.59
2022-09-01T12:45:08.984Z,22.18
2022-09-01T12:47:48.038Z,21.70
2022-09-01T12:50:16.369Z,21.24
2022-09-01T12:52:52.432Z,21.24
2022-09-01T12:58:21.704Z,21.27
2022-09-01T13:01:28.781Z,21.15
2022-09-01T13:04:25.881Z,21.03
2022-09-01T13:06:54.394Z,21.09
2022-09-01T13:09:21.192Z,21.07
2022-09-01T13:12:07.494Z,21.00
2022-09-01T13:14:34.474Z,21.01
2022-09-01T13:17:01.284Z,21.06
2022-09-01T13:19:30.873Z,21.08
2022-09-01T13:22:00.481Z,21.07
2022-09-01T13:24:30.452Z,21.10
2022-09-01T13:29:48.509Z,21.20
2022-09-01T13:32:19.050Z,21.63
2022-09-01T13:34:47.046Z,21.83
2022-09-01T13:37:14.360Z,21.85
2022-09-01T13:39:40.871Z,21.88
2022-09-01T13:42:07.886Z,22.05
2022-09-01T13:44:35.477Z,22.12
2022-09-01T13:50:08.520Z,22.32
2022-09-01T13:52:36.210Z,22.30
2022-09-01T13:55:02.920Z,22.30
2022-09-01T13:57:32.878Z,22.31
2022-09-01T14:00:05.757Z,22.19
2022-09-01T14:02:35.321Z,22.16
2022-09-01T14:05:04.493Z,22.16
2022-09-01T14:07:32.350Z,22.21
2022-09-01T14:10:02.712Z,22.35
2022-09-01T14:12:33.225Z,22.23
2022-09-01T14:15:17.808Z,22.06
2022-09-01T14:17:51.431Z,22.10
2022-09-01T14:20:24.631Z,22.15
2022-09-01T14:22:57.258Z,22.03
2022-09-01T14:25:24.708Z,21.71
2022-09-01T14:27:53.275Z,21.42
2022-09-01T14:30:27.864Z,21.28
2022-09-01T14:32:59.427Z,21.23
2022-09-01T14:35:26.409Z,21.34
2022-09-01T14:37:54.482Z,21.42
2022-09-01T14:40:23.664Z,21.30
2022-09-01T14:42:53.073Z,21.16
2022-09-01T14:45:28.605Z,21.11
2022-09-01T14:47:58.693Z,21.07
2022-09-01T14:50:25.715Z,20.97
2022-09-01T14:52:55.042Z,20.86
2022-09-01T14:55:26.810Z,20.77
2022-09-01T14:57:54.439Z,20.66
2022-09-01T15:00:25.035Z,20.54
2022-09-01T15:02:53.759Z,20.42
2022-09-01T15:05:23.489Z,20.34
2022-09-01T15:07:51.236Z,20.23
2022-09-01T15:10:24.703Z,20.08
2022-09-01T15:12:52.154Z,20.02
2022-09-01T15:15:18.762Z,20.06
2022-09-01T15:17:46.572Z,20.11
2022-09-01T15:20:32.171Z,20.31
2022-09-01T15:22:58.862Z,20.64
2022-09-01T15:25:25.810Z,20.83
2022-09-01T15:27:56.078Z,20.96
2022-09-01T15:30:23.079Z,21.05
2022-09-01T15:32:54.060Z,21.04
2022-09-01T15:35:22.170Z,20.87
2022-09-01T15:37:50.254Z,20.77
2022-09-01T15:40:18.383Z,20.78
2022-09-01T15:42:46.302Z,20.74
2022-09-01T15:45:17.912Z,20.63
2022-09-01T15:47:46.104Z,20.60
2022-09-01T15:50:20.966Z,20.67
2022-09-01T15:52:49.846Z,20.79
2022-09-01T15:55:23.029Z,20.92
2022-09-01T15:57:49.932Z,21.07
2022-09-01T16:00:18.409Z,21.07
2022-09-01T16:02:45.208Z,21.09
2022-09-01T16:05:17.911Z,21.05
2022-09-01T16:07:47.773Z,21.03
2022-09-01T16:10:14.721Z,20.92
2022-09-01T16:12:44.130Z,20.78
2022-09-01T16:15:14.681Z,20.57
2022-09-01T16:18:13.785Z,20.31
2022-09-01T16:21:03.498Z,20.14
2022-09-01T16:23:51.506Z,19.97
2022-09-01T16:26:20.375Z,19.85
2022-09-01T16:28:57.581Z,19.74
2022-09-01T16:31:30.505Z,19.64
2022-09-01T16:34:02.121Z,19.62
2022-09-01T16:36:59.458Z,19.62
2022-09-01T16:39:49.492Z,19.64
2022-09-01T16:42:36.779Z,19.67
2022-09-01T16:45:24.629Z,19.78
2022-09-01T16:48:29.187Z,19.83
2022-09-01T16:51:11.035Z,19.93
2022-09-01T16:53:59.083Z,20.06
2022-09-01T16:56:47.241Z,20.13
2022-09-01T16:59:41.543Z,20.13
2022-09-01T17:02:45.913Z,20.10
2022-09-01T17:05:22.190Z,20.08
2022-09-01T17:07:52.158Z,20.03
2022-09-01T17:10:32.804Z,19.97
2022-09-01T17:13:20.542Z,19.86
2022-09-01T17:16:01.068Z,19.78
2022-09-01T17:18:44.432Z,19.69
2022-09-01T17:21:16.828Z,19.52
2022-09-01T17:23:55.712Z,19.47
2022-09-01T17:26:28.884Z,19.37
2022-09-01T17:29:14.928Z,19.31
2022-09-01T17:31:47.440Z,19.23
2022-09-01T17:34:27.683Z,19.15
2022-09-01T17:37:02.008Z,18.96
2022-09-01T17:39:36.487Z,18.87
2022-09-01T17:42:11.525Z,18.77
2022-09-01T17:44:56.126Z,18.74
2022-09-01T17:47:32.505Z,18.66
2022-09-01T17:50:10.640Z,18.53
2022-09-01T17:53:07.410Z,18.39
2022-09-01T17:55:46.103Z,18.28
2022-09-01T17:58:31.309Z,18.23
2022-09-01T18:01:10.777Z,18.14
2022-09-01T18:03:45.417Z,18.08
2022-09-01T18:06:36.688Z,18.10
2022-09-01T18:09:03.959Z,18.10
2022-09-01T18:11:57.862Z,18.11
2022-09-01T18:14:30.461Z,18.09
2022-09-01T18:17:22.887Z,18.03
2022-09-01T18:20:13.884Z,18.00
2022-09-01T18:23:04.124Z,17.93
2022-09-01T18:25:44.863Z,17.83
2022-09-01T18:28:15.396Z,17.74
2022-09-01T18:30:53.151Z,17.67
2022-09-01T18:33:38.905Z,17.61
2022-09-01T18:36:33.888Z,17.57
2022-09-01T18:39:18.951Z,17.44
2022-09-01T18:42:26.804Z,17.29
2022-09-01T18:45:20.856Z,17.20
2022-09-01T18:47:57.063Z,17.21
2022-09-01T18:51:06.222Z,17.14
2022-09-01T18:54:05.446Z,17.14
2022-09-01T18:56:37.844Z,17.21
2022-09-01T18:59:39.907Z,17.14
2022-09-01T19:02:21.738Z,17.12
2022-09-01T19:04:52.376Z,16.99
2022-09-01T19:07:54.939Z,16.89
2022-09-01T19:10:31.024Z,16.81
2022-09-01T19:13:21.045Z,16.78
2022-09-01T19:16:13.760Z,16.77
2022-09-01T19:18:51.122Z,16.78
2022-09-01T19:21:26.774Z,16.81
2022-09-01T19:24:02.525Z,16.77
2022-09-01T19:26:40.044Z,17.02
2022-09-01T19:29:16.773Z,17.18
2022-09-01T19:31:55.227Z,17.24
2022-09-01T19:34:28.148Z,17.27
2022-09-01T19:36:57.873Z,17.25
2022-09-01T19:39:36.851Z,17.25
2022-09-01T19:42:18.270Z,17.24
2022-09-01T19:44:50.945Z,17.29
2022-09-01T19:47:37.575Z,17.34
2022-09-01T19:50:38.985Z,17.12
2022-09-01T19:53:16.657Z,16.91
2022-09-01T19:55:53.237Z,16.85
2022-09-01T19:58:43.483Z,16.79
2022-09-01T20:01:14.463Z,16.76
2022-09-01T20:03:46.728Z,16.54
2022-09-01T20:06:30.710Z,16.45
2022-09-01T20:09:05.738Z,16.43
2022-09-01T20:11:48.054Z,16.30
2022-09-01T20:14:20.701Z,16.26
2022-09-01T20:16:53.694Z,16.19
2022-09-01T20:20:00.009Z,16.14
2022-09-01T20:22:41.897Z,16.14
2022-09-01T20:25:17.873Z,16.13
2022-09-01T20:27:52.721Z,16.06
2022-09-01T20:30:23.261Z,16.02
2022-09-01T20:33:04.580Z,16.04
2022-09-01T20:35:49.577Z,16.04
2022-09-01T20:39:11.338Z,15.93
2022-09-01T20:41:45.209Z,15.90
2022-09-01T20:44:48.159Z,15.87
2022-09-01T20:47:14.846Z,15.77
2022-09-01T20:49:41.628Z,15.77
2022-09-01T20:52:16.312Z,15.77
2022-09-01T20:54:56.865Z,15.78
2022-09-01T20:57:23.369Z,15.81
2022-09-01T20:59:55.937Z,15.72
2022-09-01T21:02:41.018Z,15.57
2022-09-01T21:05:44.735Z,15.57
2022-09-01T21:08:25.926Z,15.50
2022-09-01T21:11:13.815Z,15.46
2022-09-01T21:13:46.359Z,15.54
2022-09-01T21:16:20.065Z,15.57
2022-09-01T21:19:08.313Z,15.63
2022-09-01T21:22:03.404Z,15.55
2022-09-01T21:24:30.534Z,15.52
2022-09-01T21:26:59.621Z,15.58
2022-09-01T21:29:54.371Z,15.61
2022-09-01T21:32:23.082Z,15.15
2022-09-01T21:34:50.579Z,15.14
2022-09-01T21:37:18.414Z,15.06
2022-09-01T21:39:44.925Z,14.85
2022-09-01T21:42:13.137Z,14.74
2022-09-01T21:44:44.654Z,14.73
2022-09-01T21:47:15.698Z,14.70
2022-09-01T21:49:42.438Z,14.88
2022-09-01T21:52:09.456Z,15.13
2022-09-01T21:54:37.136Z,15.12
2022-09-01T21:57:04.636Z,15.13
2022-09-01T21:59:31.263Z,15.08
2022-09-01T22:02:01.198Z,15.00
2022-09-01T22:04:27.783Z,14.82
2022-09-01T22:06:54.330Z,14.79
2022-09-01T22:09:21.975Z,14.66
2022-09-01T22:11:50.295Z,14.66
2022-09-01T22:14:18.236Z,14.58
2022-09-01T22:16:45.103Z,14.60
2022-09-01T22:19:12.085Z,14.70
2022-09-01T22:21:39.836Z,14.74
2022-09-01T22:24:06.769Z,14.79
2022-09-01T22:26:34.780Z,14.82
2022-09-01T22:29:04.435Z,14.72
2022-09-01T22:31:33.030Z,14.76
2022-09-01T22:34:03.561Z,14.72
2022-09-01T22:36:33.652Z,14.66
2022-09-01T22:39:01.268Z,14.64
2022-09-01T22:41:30.624Z,14.68
2022-09-01T22:43:59.957Z,14.70
2022-09-01T22:46:27.117Z,14.75
2022-09-01T22:48:59.666Z,14.68
2022-09-01T22:51:26.774Z,14.72
2022-09-01T22:53:54.416Z,14.73
2022-09-01T22:56:31.193Z,14.82
2022-09-01T22:59:01.814Z,14.80
2022-09-01T23:01:32.929Z,14.67
2022-09-01T23:04:01.772Z,14.68
2022-09-01T23:06:29.825Z,14.61
2022-09-01T23:08:57.418Z,14.48
2022-09-01T23:11:25.227Z,14.45
2022-09-01T23:13:52.898Z,14.44
2022-09-01T23:16:20.228Z,14.38
2022-09-01T23:18:47.923Z,14.31
2022-09-01T23:21:17.160Z,14.36
2022-09-01T23:23:44.267Z,14.24
2022-09-01T23:26:13.884Z,14.11
2022-09-01T23:28:42.090Z,13.91
2022-09-01T23:31:14.631Z,13.97
2022-09-01T23:33:41.591Z,14.25
2022-09-01T23:36:11.518Z,14.04
2022-09-01T23:38:38.934Z,14.04
2022-09-01T23:41:08.275Z,14.15
2022-09-01T23:43:35.058Z,14.28
2022-09-01T23:46:01.935Z,14.19
2022-09-01T23:48:32.580Z,14.22
2022-09-01T23:51:06.062Z,14.22
2022-09-01T23:53:34.983Z,14.10
2022-09-01T23:56:04.314Z,13.99
2022-09-01T23:58:31.975Z,13.93
